Time;durP1;ratioP1;P1;durP2;ratioP2;P2;SDS_P1;SDS_P2;PMS_P1;PMS_P2;Temp;Humidity;BMP_temperature;BMP_pressure;BME280_temperature;BME280_humidity;BME280_pressure;Samples;Min_cycle;Max_cycle;Signal;HPM_P1;HPM_P2
2023/12/22 00:00:07;;;;;;;6.90;2.30;;;;;;;4.39;92.04;96385.53;219589;1257;140918;-69
2023/12/22 00:05:32;;;;;;;6.60;2.30;;;;;;;4.33;91.86;96374.19;219326;1256;140229;-69
2023/12/22 00:10:37;;;;;;;12.80;2.30;;;;;;;4.24;91.45;96376.86;218688;1254;139721;-68
2023/12/22 00:15:45;;;;;;;4.50;2.10;;;;;;;4.15;91.18;96378.20;218938;1257;140135;-69
2023/12/22 00:20:49;;;;;;;5.60;1.60;;;;;;;4.04;91.17;96372.30;218742;1257;139623;-69
2023/12/22 00:25:52;;;;;;;6.40;1.60;;;;;;;3.92;90.77;96374.77;219046;1256;139551;-69
2023/12/22 00:30:56;;;;;;;7.20;2.40;;;;;;;3.83;91.12;96379.98;218589;1256;139417;-69
2023/12/22 00:36:01;;;;;;;5.90;1.90;;;;;;;3.78;90.94;96382.91;219089;1254;139516;-69
2023/12/22 00:41:05;;;;;;;4.70;2.20;;;;;;;3.70;90.83;96381.48;218786;1257;139751;-69
2023/12/22 00:46:10;;;;;;;4.70;2.50;;;;;;;3.64;91.13;96384.70;218842;1253;139606;-69
2023/12/22 00:51:16;;;;;;;4.00;1.30;;;;;;;3.61;91.14;96401.35;218819;1254;140441;-72
2023/12/22 00:56:20;;;;;;;8.60;1.90;;;;;;;3.60;91.29;96398.15;219588;1254;140529;-74
2023/12/22 01:01:25;;;;;;;7.20;2.50;;;;;;;3.61;91.13;96402.67;218565;1256;139614;-71
2023/12/22 01:06:29;;;;;;;5.70;1.70;;;;;;;3.64;90.88;96406.14;218184;1254;139735;-69
2023/12/22 01:11:35;;;;;;;11.20;2.60;;;;;;;3.64;90.96;96404.77;219204;1255;140818;-67
2023/12/22 01:16:39;;;;;;;6.70;1.60;;;;;;;3.60;90.71;96407.30;220698;1254;140618;-68
2023/12/22 01:21:43;;;;;;;9.60;1.70;;;;;;;3.53;90.34;96410.29;220519;1254;140034;-67
2023/12/22 01:26:47;;;;;;;4.80;1.60;;;;;;;3.50;90.41;96416.25;220925;1253;139762;-68
2023/12/22 01:31:51;;;;;;;13.80;3.10;;;;;;;3.51;90.39;96406.92;219148;1256;141294;-68
2023/12/22 01:36:56;;;;;;;3.90;1.40;;;;;;;3.52;90.11;96414.93;219720;1253;140479;-71
2023/12/22 01:42:02;;;;;;;5.60;2.20;;;;;;;3.48;89.98;96416.15;219029;1254;139824;-68
2023/12/22 01:47:06;;;;;;;5.20;2.20;;;;;;;3.41;90.00;96425.45;218311;1254;140318;-69
2023/12/22 01:52:11;;;;;;;12.00;7.20;;;;;;;3.40;90.00;96434.77;219189;1254;140164;-67
2023/12/22 01:57:17;;;;;;;8.10;3.10;;;;;;;3.42;90.04;96439.60;219994;1253;141340;-68
2023/12/22 02:02:22;;;;;;;8.40;4.10;;;;;;;3.46;90.02;96438.48;218914;1254;139548;-69
2023/12/22 02:07:26;;;;;;;6.00;2.50;;;;;;;3.47;89.61;96436.44;218730;1254;139585;-69
2023/12/22 02:12:31;;;;;;;10.00;2.80;;;;;;;3.47;89.48;96428.16;218275;1254;139532;-72
2023/12/22 02:17:50;;;;;;;8.00;3.20;;;;;;;3.47;89.24;96416.69;219120;1253;140123;-69
2023/12/22 02:22:55;;;;;;;4.40;2.40;;;;;;;3.47;89.05;96411.58;218641;1254;139494;-69
2023/12/22 02:28:09;;;;;;;8.00;2.50;;;;;;;3.45;88.73;96398.36;218283;1252;139457;-66
2023/12/22 02:33:17;;;;;;;4.90;2.50;;;;;;;3.43;88.16;96392.37;218360;1254;139606;-67
2023/12/22 02:38:23;;;;;;;7.50;1.90;;;;;;;3.41;87.75;96388.31;218416;1254;139559;-67
2023/12/22 02:43:29;;;;;;;7.80;2.40;;;;;;;3.41;87.48;96379.95;218777;1254;141228;-66
2023/12/22 02:48:33;;;;;;;10.50;3.70;;;;;;;3.43;87.05;96392.95;218716;1254;140400;-67
2023/12/22 02:53:38;;;;;;;8.90;1.70;;;;;;;3.44;86.87;96393.27;219153;1253;140111;-66
2023/12/22 02:58:43;;;;;;;5.70;2.30;;;;;;;3.43;86.29;96396.26;218801;1254;140114;-69
2023/12/22 03:03:48;;;;;;;6.60;3.10;;;;;;;3.43;86.19;96402.52;219048;1252;140596;-68
2023/12/22 03:08:53;;;;;;;8.80;2.50;;;;;;;3.40;86.03;96400.48;219226;1253;139908;-67
2023/12/22 03:13:58;;;;;;;7.30;2.10;;;;;;;3.39;85.91;96408.07;219324;1254;139902;-70
2023/12/22 03:19:03;;;;;;;7.40;2.10;;;;;;;3.38;85.78;96413.23;220808;1254;145356;-70
2023/12/22 03:24:08;;;;;;;10.00;3.30;;;;;;;3.38;85.52;96419.23;219813;1252;139404;-70
2023/12/22 03:29:13;;;;;;;7.90;2.10;;;;;;;3.38;85.61;96410.87;220283;1252;140819;-69
2023/12/22 03:34:18;;;;;;;10.60;3.00;;;;;;;3.35;85.07;96417.95;220121;1253;139478;-70
2023/12/22 03:39:22;;;;;;;8.20;2.30;;;;;;;3.34;85.04;96419.22;220247;1251;140304;-68
2023/12/22 03:44:27;;;;;;;7.40;2.50;;;;;;;3.36;85.43;96417.73;218873;1254;925525;-69
2023/12/22 03:49:32;;;;;;;9.60;2.90;;;;;;;3.38;84.92;96416.45;220554;1252;139880;-70
2023/12/22 03:54:37;;;;;;;8.40;1.80;;;;;;;3.38;84.98;96413.13;218744;1251;140439;-69
2023/12/22 03:59:43;;;;;;;6.00;2.10;;;;;;;3.36;84.23;96400.94;218974;1252;139770;-69
2023/12/22 04:04:48;;;;;;;5.80;2.00;;;;;;;3.35;84.32;96407.59;218568;1252;140423;-68
2023/12/22 04:09:52;;;;;;;3.50;1.60;;;;;;;3.31;83.90;96400.12;218677;1252;139480;-68
2023/12/22 04:14:56;;;;;;;8.80;2.10;;;;;;;3.27;83.83;96397.50;218586;1253;140167;-68
2023/12/22 04:20:01;;;;;;;10.50;2.80;;;;;;;3.23;83.44;96408.52;218947;1254;139775;-68
2023/12/22 04:25:07;;;;;;;7.00;2.40;;;;;;;3.17;83.57;96408.05;219235;1254;139647;-68
2023/12/22 04:30:12;;;;;;;7.50;2.40;;;;;;;3.12;83.15;96402.48;218807;1251;139449;-68
2023/12/22 04:35:17;;;;;;;9.50;1.80;;;;;;;3.04;82.63;96400.36;219789;1253;139973;-69
2023/12/22 04:40:21;;;;;;;9.90;2.10;;;;;;;2.99;82.83;96399.02;218863;1254;140699;-69
2023/12/22 04:45:26;;;;;;;22.80;5.50;;;;;;;2.96;82.43;96399.34;219369;1253;141570;-69
2023/12/22 04:50:51;;;;;;;9.70;2.80;;;;;;;2.93;82.34;96404.60;218976;1253;140910;-68
2023/12/22 04:55:55;;;;;;;6.80;2.60;;;;;;;2.92;82.36;96402.50;220142;1254;139649;-69
2023/12/22 05:01:02;;;;;;;8.20;2.20;;;;;;;2.88;81.64;96407.67;220044;1251;139958;-69
2023/12/22 05:06:06;;;;;;;14.50;2.30;;;;;;;2.85;81.42;96408.98;221108;1252;139401;-71
2023/12/22 05:11:11;;;;;;;7.50;2.90;;;;;;;2.84;81.55;96419.39;220891;1252;141447;-71
2023/12/22 05:16:15;;;;;;;9.60;1.60;;;;;;;2.87;81.08;96432.02;220086;1253;140906;-71
2023/12/22 05:21:21;;;;;;;3.60;1.50;;;;;;;2.88;80.94;96431.34;220184;1251;140127;-69
2023/12/22 05:26:29;;;;;;;12.10;2.10;;;;;;;2.89;80.83;96427.81;219522;1253;141471;-71
2023/12/22 05:31:34;;;;;;;9.50;2.40;;;;;;;2.88;80.63;96434.02;220298;1252;140698;-71
2023/12/22 05:36:38;;;;;;;6.90;2.60;;;;;;;2.83;80.16;96437.55;219119;1254;140582;-70
2023/12/22 05:41:43;;;;;;;10.70;1.80;;;;;;;2.74;79.83;96448.04;219490;1252;140371;-69
2023/12/22 05:46:49;;;;;;;9.40;1.80;;;;;;;2.67;79.88;96458.89;219475;1254;140840;-70
2023/12/22 05:51:54;;;;;;;2.60;1.50;;;;;;;2.64;79.80;96461.73;218526;1256;140081;-70
2023/12/22 05:56:59;;;;;;;5.00;2.00;;;;;;;2.56;79.60;96470.77;219502;1253;139409;-71
2023/12/22 06:02:04;;;;;;;7.00;1.10;;;;;;;2.45;79.74;96473.39;219167;1252;140328;-70
2023/12/22 06:07:10;;;;;;;6.10;1.30;;;;;;;2.34;79.24;96472.02;218549;1254;140235;-68
2023/12/22 06:12:15;;;;;;;6.70;2.10;;;;;;;2.30;79.76;96490.10;218660;1251;139404;-69
2023/12/22 06:17:20;;;;;;;4.40;1.60;;;;;;;2.31;79.93;96501.61;218587;1254;140708;-68
2023/12/22 06:22:24;;;;;;;11.00;1.60;;;;;;;2.31;80.15;96525.48;218837;1252;139337;-68
2023/12/22 06:27:29;;;;;;;5.60;1.40;;;;;;;2.26;79.90;96536.49;219134;1251;139979;-68
2023/12/22 06:32:34;;;;;;;12.10;4.50;;;;;;;2.15;79.78;96534.10;218968;1252;140475;-68
2023/12/22 06:37:39;;;;;;;10.90;3.00;;;;;;;2.03;79.63;96534.91;219107;1252;139532;-68
2023/12/22 06:42:44;;;;;;;4.70;1.80;;;;;;;1.92;79.79;96540.95;219640;1251;139839;-68
2023/12/22 06:47:49;;;;;;;8.20;1.40;;;;;;;1.86;79.85;96559.10;219729;1251;139781;-68
2023/12/22 06:52:54;;;;;;;7.30;1.90;;;;;;;1.85;80.28;96567.25;220590;1254;140785;-68
2023/12/22 06:57:59;;;;;;;2.70;1.30;;;;;;;1.86;80.56;96572.49;221313;1252;140357;-68
2023/12/22 07:03:04;;;;;;;5.40;1.40;;;;;;;1.82;80.47;96574.77;220972;1253;141687;-70
2023/12/22 07:08:08;;;;;;;14.70;2.90;;;;;;;1.80;80.83;96574.97;221087;1251;140523;-70
2023/12/22 07:13:13;;;;;;;17.00;2.20;;;;;;;1.87;80.97;96568.46;221036;1251;140124;-71
2023/12/22 07:18:17;;;;;;;6.50;1.80;;;;;;;1.96;80.74;96558.16;220678;1251;140820;-71
2023/12/22 07:23:22;;;;;;;7.70;1.60;;;;;;;2.07;80.55;96563.88;218908;1253;139652;-68
2023/12/22 07:28:27;;;;;;;8.60;2.20;;;;;;;2.23;80.59;96562.45;219219;1252;142859;-67
2023/12/22 07:33:31;;;;;;;3.60;1.50;;;;;;;2.37;80.54;96561.71;219954;1253;139616;-68
2023/12/22 07:38:36;;;;;;;7.40;1.90;;;;;;;2.40;79.85;96557.52;219390;1253;139822;-68
2023/12/22 07:43:41;;;;;;;10.40;3.20;;;;;;;2.39;79.60;96567.55;218684;1254;139525;-68
2023/12/22 07:48:46;;;;;;;3.80;1.80;;;;;;;2.38;79.60;96563.66;218861;1253;144580;-68
2023/12/22 07:53:51;;;;;;;7.40;2.00;;;;;;;2.40;79.41;96559.19;219457;1252;139483;-68
2023/12/22 07:58:56;;;;;;;8.50;2.30;;;;;;;2.40;79.29;96555.20;218533;1253;139701;-68
2023/12/22 08:04:17;;;;;;;4.60;1.90;;;;;;;2.44;79.33;96551.69;217884;1253;140564;-68
2023/12/22 08:09:20;;;;;;;7.70;2.30;;;;;;;2.46;79.21;96552.20;218985;1253;139899;-68
2023/12/22 08:14:23;;;;;;;5.30;2.00;;;;;;;2.47;79.05;96546.30;218275;1256;139627;-68
2023/12/22 08:19:28;;;;;;;7.70;1.90;;;;;;;2.45;79.15;96547.99;219245;1253;139683;-67
2023/12/22 08:24:34;;;;;;;3.20;1.80;;;;;;;2.38;78.92;96537.00;219623;1253;140811;-68
2023/12/22 08:29:39;;;;;;;5.90;2.10;;;;;;;2.40;79.46;96530.28;219097;1252;140303;-68
2023/12/22 08:34:45;;;;;;;5.70;2.70;;;;;;;2.48;79.01;96539.42;218172;1254;139495;-67
2023/12/22 08:39:53;;;;;;;7.90;1.50;;;;;;;2.61;79.45;96545.02;220013;1253;139639;-68
2023/12/22 08:44:58;;;;;;;11.00;1.80;;;;;;;2.83;79.44;96535.77;218263;1251;140185;-67
2023/12/22 08:50:07;;;;;;;6.80;1.50;;;;;;;2.99;79.73;96533.46;220067;1253;140658;-67
2023/12/22 08:55:13;;;;;;;6.20;2.30;;;;;;;3.03;79.65;96519.36;220255;1254;139768;-68
2023/12/22 09:00:21;;;;;;;2.00;1.30;;;;;;;3.01;79.49;96525.52;218552;1256;140039;-67
2023/12/22 09:05:25;;;;;;;8.00;1.70;;;;;;;2.96;79.44;96521.68;220906;1251;140693;-67
2023/12/22 09:10:32;;;;;;;10.70;2.00;;;;;;;2.98;79.29;96519.89;220039;1252;140486;-67
2023/12/22 09:15:41;;;;;;;3.10;1.50;;;;;;;2.99;79.19;96525.36;220921;1252;141387;-67
2023/12/22 09:20:46;;;;;;;4.80;1.70;;;;;;;3.02;79.43;96515.84;220303;1252;140011;-68
2023/12/22 09:25:51;;;;;;;3.40;2.10;;;;;;;3.11;79.33;96515.33;218963;1253;139607;-67
2023/12/22 09:31:02;;;;;;;4.90;2.50;;;;;;;3.17;79.00;96513.33;219365;1253;139815;-66
2023/12/22 09:36:09;;;;;;;4.50;1.30;;;;;;;3.09;78.96;96531.40;219138;1252;140283;-67
2023/12/22 09:41:15;;;;;;;2.20;1.60;;;;;;;2.89;79.56;96535.09;218543;1251;140434;-67
2023/12/22 09:46:25;;;;;;;2.80;1.30;;;;;;;2.57;79.79;96536.86;219344;1253;140451;-67
2023/12/22 09:51:32;;;;;;;6.20;1.60;;;;;;;2.25;80.34;96531.39;218472;1253;140720;-67
2023/12/22 09:56:43;;;;;;;3.80;1.80;;;;;;;2.03;80.87;96536.80;218276;1255;139388;-67
2023/12/22 10:01:50;;;;;;;3.20;1.50;;;;;;;2.01;81.82;96547.15;218830;1253;140095;-67
2023/12/22 10:07:01;;;;;;;4.10;2.10;;;;;;;2.12;82.23;96547.35;218126;1256;140823;-67
2023/12/22 10:12:09;;;;;;;4.40;1.80;;;;;;;2.25;82.13;96542.11;218129;1253;140318;-67
2023/12/22 10:17:22;;;;;;;4.40;1.30;;;;;;;2.24;82.00;96548.84;218585;1256;140490;-67
2023/12/22 10:22:30;;;;;;;3.90;1.10;;;;;;;2.32;82.33;96555.80;218097;1253;139603;-66
2023/12/22 10:27:37;;;;;;;1.10;0.80;;;;;;;2.41;81.64;96565.73;219114;1253;139456;-67
2023/12/22 10:32:45;;;;;;;1.10;0.80;;;;;;;2.23;81.52;96566.23;218653;1252;211016;-67
2023/12/22 10:37:56;;;;;;;6.40;2.00;;;;;;;1.86;82.09;96558.86;219097;1253;140376;-67
2023/12/22 10:43:05;;;;;;;4.70;1.50;;;;;;;1.62;82.50;96546.88;219456;1253;141223;-67
2023/12/22 10:48:13;;;;;;;1.50;1.40;;;;;;;1.40;82.76;96549.23;219478;1253;237157;-67
2023/12/22 10:53:25;;;;;;;6.50;2.10;;;;;;;1.27;83.31;96541.90;220618;1253;142303;-68
2023/12/22 10:58:33;;;;;;;2.90;2.30;;;;;;;1.20;83.58;96561.86;219339;1253;140648;-67
2023/12/22 11:03:51;;;;;;;3.90;0.80;;;;;;;1.11;83.88;96556.17;220891;1253;139848;-68
2023/12/22 11:09:05;;;;;;;2.20;1.30;;;;;;;1.15;84.47;96539.90;220017;1253;139559;-68
2023/12/22 11:14:13;;;;;;;1.60;1.20;;;;;;;1.28;84.37;96541.86;219668;1253;139688;-67
2023/12/22 11:19:20;;;;;;;2.90;2.40;;;;;;;1.37;84.56;96528.73;219520;1253;141320;-68
2023/12/22 11:24:28;;;;;;;2.40;1.20;;;;;;;1.47;84.67;96519.63;219601;1253;139623;-67
2023/12/22 11:29:34;;;;;;;2.60;1.30;;;;;;;1.50;85.01;96526.93;219222;1251;140359;-67
2023/12/22 11:34:42;;;;;;;5.50;1.80;;;;;;;1.61;85.10;96517.14;219409;1251;140319;-67
2023/12/22 11:39:47;;;;;;;8.20;1.90;;;;;;;1.69;85.04;96517.87;219415;1255;140747;-67
2023/12/22 11:44:53;;;;;;;7.70;2.60;;;;;;;1.73;84.99;96518.46;218304;1257;141631;-67
2023/12/22 11:49:57;;;;;;;3.50;1.20;;;;;;;1.73;84.95;96519.10;218698;1251;141638;-67
2023/12/22 11:55:02;;;;;;;3.40;1.40;;;;;;;1.70;84.79;96520.30;218534;1255;139378;-66
2023/12/22 12:00:33;;;;;;;4.00;1.00;;;;;;;1.65;84.97;96514.86;218253;1255;139753;-67
2023/12/22 12:05:38;;;;;;;6.20;1.80;;;;;;;1.57;84.94;96500.54;218571;1254;139602;-67
2023/12/22 12:11:03;;;;;;;4.70;1.40;;;;;;;1.56;84.90;96506.14;218537;1254;140639;-67
2023/12/22 12:16:07;;;;;;;4.80;1.90;;;;;;;1.58;84.99;96506.21;219018;1254;139833;-67
2023/12/22 12:21:16;;;;;;;8.40;2.50;;;;;;;1.58;85.10;96493.03;219397;1253;140542;-67
2023/12/22 12:26:21;;;;;;;6.00;2.30;;;;;;;1.59;85.34;96498.92;218657;1257;140325;-66
2023/12/22 12:31:38;;;;;;;8.10;1.80;;;;;;;1.63;85.28;96504.03;219440;1251;139723;-67
2023/12/22 12:36:42;;;;;;;3.70;1.50;;;;;;;1.65;85.32;96502.57;218217;1253;140577;-67
2023/12/22 12:41:54;;;;;;;6.80;3.20;;;;;;;1.65;85.17;96511.18;220212;1251;139430;-67
2023/12/22 12:46:58;;;;;;;5.20;1.30;;;;;;;1.64;85.10;96510.70;219616;1251;143505;-67
2023/12/22 12:52:03;;;;;;;7.70;2.00;;;;;;;1.65;84.72;96509.40;221204;1253;139253;-67
2023/12/22 12:57:17;;;;;;;3.30;1.60;;;;;;;1.68;85.13;96497.65;220264;1251;141722;-66
2023/12/22 13:02:23;;;;;;;3.60;1.50;;;;;;;1.74;84.77;96489.54;221021;1251;140049;-67
2023/12/22 13:07:30;;;;;;;8.20;2.40;;;;;;;1.79;84.73;96495.60;221125;1251;140571;-67
2023/12/22 13:12:36;;;;;;;11.50;1.50;;;;;;;1.79;84.31;96486.94;219888;1251;139506;-68
2023/12/22 13:17:41;;;;;;;2.90;1.20;;;;;;;1.83;84.16;96484.95;218393;1251;139989;-67
2023/12/22 13:22:46;;;;;;;7.10;1.10;;;;;;;1.86;84.12;96490.61;219643;1251;140600;-67
2023/12/22 13:27:52;;;;;;;5.30;3.80;;;;;;;1.91;83.91;96489.21;218957;1253;141229;-67
2023/12/22 13:32:57;;;;;;;8.90;3.00;;;;;;;1.98;83.42;96490.98;219193;1255;139791;-67
2023/12/22 13:38:01;;;;;;;5.60;1.50;;;;;;;2.01;82.84;96492.19;219554;1253;139484;-67
2023/12/22 13:43:07;;;;;;;9.70;1.60;;;;;;;2.02;82.72;96503.65;219366;1253;140458;-67
2023/12/22 13:48:16;;;;;;;2.90;1.20;;;;;;;2.05;82.57;96512.59;218407;1251;140751;-67
2023/12/22 13:53:21;;;;;;;6.20;1.80;;;;;;;2.00;82.56;96530.91;218825;1251;139600;-67
2023/12/22 13:58:27;;;;;;;12.10;2.20;;;;;;;1.97;82.42;96532.21;218328;1251;141036;-67
2023/12/22 14:03:33;;;;;;;6.50;1.80;;;;;;;1.90;82.25;96534.65;218820;1254;139836;-66
2023/12/22 14:08:42;;;;;;;5.80;1.10;;;;;;;1.85;82.58;96528.16;218817;1251;140970;-66
2023/12/22 14:13:48;;;;;;;9.40;2.30;;;;;;;1.84;82.44;96528.17;218250;1252;139749;-67
2023/12/22 14:18:54;;;;;;;6.10;1.60;;;;;;;1.83;82.35;96538.05;218992;1251;140461;-66
2023/12/22 14:24:00;;;;;;;8.00;1.90;;;;;;;1.85;82.15;96526.22;218911;1253;140757;-68
2023/12/22 14:29:05;;;;;;;6.80;1.30;;;;;;;1.87;82.28;96536.15;218164;1253;140126;-65
2023/12/22 14:34:16;;;;;;;15.60;5.90;;;;;;;1.89;81.80;96537.22;218231;1256;139543;-66
2023/12/22 14:39:23;;;;;;;5.30;2.40;;;;;;;1.90;81.98;96550.62;218877;1254;140263;-64
2023/12/22 14:44:29;;;;;;;9.30;3.40;;;;;;;1.92;81.55;96557.20;218912;1256;139838;-66
2023/12/22 14:49:34;;;;;;;9.10;2.50;;;;;;;1.95;81.44;96562.67;219869;1253;140153;-67
2023/12/22 14:54:39;;;;;;;5.40;2.40;;;;;;;1.96;81.28;96559.10;219597;1251;141108;-68
2023/12/22 14:59:50;;;;;;;5.50;3.30;;;;;;;1.97;81.40;96568.52;219673;1253;140242;-67
2023/12/22 15:04:55;;;;;;;14.90;3.20;;;;;;;1.97;81.29;96566.41;220162;1252;140202;-66
2023/12/22 15:10:07;;;;;;;8.60;2.30;;;;;;;1.97;81.24;96567.25;220161;1251;139732;-66
2023/12/22 15:15:13;;;;;;;11.30;3.10;;;;;;;1.96;80.92;96564.52;220087;1253;139982;-70
2023/12/22 15:20:18;;;;;;;3.00;1.40;;;;;;;1.96;80.78;96575.39;218040;1254;139708;-67
2023/12/22 15:25:24;;;;;;;6.40;2.40;;;;;;;1.98;80.35;96584.33;217572;1254;140173;-67
2023/12/22 15:30:30;;;;;;;11.00;2.20;;;;;;;2.00;80.25;96587.96;218547;1254;139978;-69
2023/12/22 15:35:36;;;;;;;3.00;1.30;;;;;;;2.03;80.03;96592.71;218412;1254;139876;-67
2023/12/22 15:40:41;;;;;;;5.90;1.70;;;;;;;2.07;79.78;96593.95;218496;1254;668271;-68
2023/12/22 15:45:46;;;;;;;5.30;1.70;;;;;;;2.10;79.58;96601.05;218135;1254;139233;-68
2023/12/22 15:50:50;;;;;;;4.50;1.50;;;;;;;2.12;79.31;96613.14;219760;1254;141439;-68
2023/12/22 15:55:56;;;;;;;4.30;1.60;;;;;;;2.14;79.06;96610.71;217672;1256;139638;-66
2023/12/22 16:01:04;;;;;;;5.30;1.50;;;;;;;2.17;78.85;96615.98;217949;1255;139454;-68
2023/12/22 16:06:09;;;;;;;6.80;2.20;;;;;;;2.17;78.67;96613.66;219111;1256;139375;-67
2023/12/22 16:11:18;;;;;;;6.00;1.50;;;;;;;2.17;78.39;96619.29;218413;1257;141665;-66
2023/12/22 16:16:25;;;;;;;4.80;2.40;;;;;;;2.18;77.97;96624.96;218576;1256;140555;-67
2023/12/22 16:21:30;;;;;;;6.80;2.40;;;;;;;2.18;78.01;96626.86;218326;1257;139602;-69
2023/12/22 16:26:34;;;;;;;3.10;0.90;;;;;;;2.16;77.82;96634.47;218228;1257;139437;-69
2023/12/22 16:31:41;;;;;;;78.30;28.20;;;;;;;2.14;77.56;96640.36;217789;1254;140235;-65
2023/12/22 16:36:50;;;;;;;19.20;7.30;;;;;;;2.14;77.55;96650.08;218241;1257;140718;-64
2023/12/22 16:41:56;;;;;;;10.80;6.20;;;;;;;2.14;77.36;96656.40;218381;1256;139974;-63
2023/12/22 16:47:03;;;;;;;;;;;;;;;2.14;77.32;96672.63;218342;1254;139848;-65
2023/12/22 16:52:10;;;;;;;9.80;4.90;;;;;;;2.12;76.73;96678.73;218116;1257;126519;-67
2023/12/22 16:57:18;;;;;;;8.80;2.80;;;;;;;2.12;76.87;96684.61;218237;1256;140416;-65
2023/12/22 17:02:23;;;;;;;9.20;2.40;;;;;;;2.12;76.62;96687.71;218244;1256;139280;-64
2023/12/22 17:07:37;;;;;;;7.50;2.80;;;;;;;2.10;76.42;96697.00;219189;1257;140544;-63
2023/12/22 17:12:45;;;;;;;8.20;2.30;;;;;;;2.06;76.43;96699.44;218937;1257;140646;-62
2023/12/22 17:17:52;;;;;;;6.50;2.00;;;;;;;2.03;76.71;96709.62;218700;1255;141812;-63
2023/12/22 17:22:57;;;;;;;5.80;2.20;;;;;;;2.02;76.65;96712.87;217936;1254;141469;-65
2023/12/22 17:28:03;;;;;;;10.20;2.50;;;;;;;1.99;76.59;96714.80;217945;1257;139850;-64
2023/12/22 17:33:09;;;;;;;8.70;1.60;;;;;;;1.98;76.47;96710.38;217975;1254;139723;-65
2023/12/22 17:44:41;;;;;;;7.00;2.70;;;;;;;1.94;76.13;96715.18;217780;1257;140397;-65
2023/12/22 17:49:47;;;;;;;2.90;1.30;;;;;;;1.94;75.57;96723.42;217688;1256;139460;-64
2023/12/22 17:54:52;;;;;;;8.10;1.60;;;;;;;1.95;75.06;96724.44;218622;1255;140964;-68
2023/12/22 17:59:58;;;;;;;4.90;1.80;;;;;;;1.94;74.42;96726.16;218088;1254;140024;-67
2023/12/22 18:05:03;;;;;;;5.50;2.40;;;;;;;1.95;74.65;96734.52;218583;1256;139609;-68
2023/12/22 18:10:10;;;;;;;10.30;1.90;;;;;;;1.96;74.25;96740.67;217974;1257;139639;-67
2023/12/22 18:15:16;;;;;;;7.90;4.30;;;;;;;1.96;74.35;96746.40;218735;1256;139987;-67
2023/12/22 18:20:25;;;;;;;7.80;1.90;;;;;;;1.93;74.00;96741.02;217847;1255;139516;-67
2023/12/22 18:25:32;;;;;;;9.90;1.70;;;;;;;1.92;73.90;96743.06;219224;1257;140210;-68
2023/12/22 18:30:40;;;;;;;9.80;1.60;;;;;;;1.92;73.21;96746.68;217673;1257;142621;-66
2023/12/22 18:35:45;;;;;;;5.90;2.00;;;;;;;1.92;73.13;96742.11;220454;1257;139825;-68
2023/12/22 18:40:50;;;;;;;5.10;1.40;;;;;;;1.91;72.94;96745.73;218889;1256;140815;-68
2023/12/22 18:45:58;;;;;;;9.10;2.70;;;;;;;1.90;72.68;96743.20;218809;1254;140378;-68
2023/12/22 18:51:03;;;;;;;;;;;;;;;1.90;72.76;96740.94;220274;1255;140587;-67
2023/12/22 18:56:07;;;;;;;5.00;1.70;;;;;;;1.89;72.47;96742.40;220886;1253;126825;-67
2023/12/22 19:01:13;;;;;;;2.20;1.10;;;;;;;1.91;72.27;96742.20;220378;1254;140055;-67
2023/12/22 19:06:33;;;;;;;6.30;2.10;;;;;;;1.92;72.11;96742.63;220414;1254;140054;-66
2023/12/22 19:11:43;;;;;;;10.50;2.60;;;;;;;1.94;72.01;96748.16;219150;1253;141260;-66
2023/12/22 19:16:51;;;;;;;11.50;2.60;;;;;;;1.88;72.31;96753.79;219138;1257;141950;-66
2023/12/22 19:21:56;;;;;;;6.20;2.40;;;;;;;1.81;72.39;96755.20;218251;1256;139676;-66
2023/12/22 19:27:02;;;;;;;11.20;2.60;;;;;;;1.76;72.75;96758.92;217427;1254;139714;-67
2023/12/22 19:32:08;;;;;;;5.10;3.00;;;;;;;1.72;72.28;96757.89;218336;1259;140982;-67
2023/12/22 19:37:17;;;;;;;5.20;1.90;;;;;;;1.72;72.02;96762.92;217371;1255;139885;-67
2023/12/22 19:42:25;;;;;;;6.20;2.70;;;;;;;1.71;71.85;96773.11;218661;1260;140040;-67
2023/12/22 19:47:30;;;;;;;11.30;2.40;;;;;;;1.64;72.07;96787.64;217929;1254;140813;-67
2023/12/22 19:52:36;;;;;;;6.80;2.30;;;;;;;1.56;72.47;96786.89;217517;1259;140466;-66
2023/12/22 19:57:43;;;;;;;7.00;3.80;;;;;;;1.46;72.83;96787.39;217506;1254;141365;-66
2023/12/22 20:02:48;;;;;;;7.90;2.10;;;;;;;1.37;73.05;96786.61;218225;1254;139512;-66
2023/12/22 20:07:54;;;;;;;5.10;2.10;;;;;;;1.29;73.24;96788.09;217324;1254;140901;-66
2023/12/22 20:13:01;;;;;;;5.40;1.80;;;;;;;1.20;73.21;96794.32;218067;1254;225184;-67
2023/12/22 20:18:08;;;;;;;19.30;3.30;;;;;;;1.17;73.25;96794.88;219017;1254;141076;-66
2023/12/22 20:23:12;;;;;;;7.80;2.10;;;;;;;1.16;73.17;96800.52;219004;1254;140161;-68
2023/12/22 20:28:17;;;;;;;6.30;2.50;;;;;;;1.15;73.11;96814.14;218966;1254;140689;-70
2023/12/22 20:33:22;;;;;;;4.10;2.30;;;;;;;1.14;73.13;96828.35;219698;1254;139666;-69
2023/12/22 20:38:30;;;;;;;8.30;2.90;;;;;;;1.10;73.25;96836.02;219464;1254;139491;-68
2023/12/22 20:43:46;;;;;;;8.20;2.00;;;;;;;1.09;73.61;96839.25;220572;1253;139804;-69
2023/12/22 20:48:52;;;;;;;9.20;2.50;;;;;;;1.10;73.71;96849.92;220487;1253;139912;-70
2023/12/22 20:54:02;;;;;;;10.80;2.60;;;;;;;1.12;73.73;96853.77;219502;1254;139975;-69
2023/12/22 20:59:07;;;;;;;6.30;2.10;;;;;;;1.13;73.67;96855.48;220505;1253;140374;-70
2023/12/22 21:04:16;;;;;;;9.20;1.80;;;;;;;1.14;73.44;96858.73;219036;1254;139848;-70
2023/12/22 21:09:21;;;;;;;10.90;2.30;;;;;;;1.14;73.51;96858.58;218545;1254;220853;-69
2023/12/22 21:14:25;;;;;;;4.60;1.80;;;;;;;1.12;73.37;96850.53;217354;1257;140446;-69
2023/12/22 21:19:29;;;;;;;5.60;2.60;;;;;;;1.09;73.56;96848.60;218106;1252;141006;-68
2023/12/22 21:24:35;;;;;;;5.70;1.40;;;;;;;1.09;73.90;96850.91;218411;1257;139398;-69
2023/12/22 21:29:43;;;;;;;23.60;6.00;;;;;;;1.08;73.74;96855.04;217713;1256;140106;-69
2023/12/22 21:34:52;;;;;;;9.30;2.00;;;;;;;1.06;73.81;96859.05;218864;1254;139893;-68
2023/12/22 21:40:00;;;;;;;6.10;2.60;;;;;;;1.06;73.68;96853.29;218578;1254;140225;-69
2023/12/22 21:45:06;;;;;;;4.80;1.60;;;;;;;1.07;73.93;96859.27;218094;1254;140296;-67
2023/12/22 21:50:14;;;;;;;7.20;2.00;;;;;;;1.09;73.66;96866.60;217491;1257;139630;-68
2023/12/22 21:55:18;;;;;;;4.10;2.50;;;;;;;1.11;73.70;96880.84;218104;1254;141480;-66
2023/12/22 22:00:22;;;;;;;3.80;1.40;;;;;;;1.13;73.37;96885.11;217865;1254;150108;-67
2023/12/22 22:05:27;;;;;;;4.80;1.30;;;;;;;1.15;72.92;96888.81;218204;1254;140997;-67
2023/12/22 22:10:33;;;;;;;4.00;1.30;;;;;;;1.16;72.53;96891.92;218038;1254;139514;-67
2023/12/22 22:15:39;;;;;;;5.30;1.60;;;;;;;1.18;72.40;96898.05;217724;1256;139919;-66
2023/12/22 22:20:44;;;;;;;8.60;1.60;;;;;;;1.20;72.10;96897.48;219925;1253;140257;-68
2023/12/22 22:25:49;;;;;;;7.80;2.30;;;;;;;1.21;72.16;96903.42;218152;1257;139882;-67
2023/12/22 22:30:54;;;;;;;6.30;1.60;;;;;;;1.24;72.14;96900.82;218901;1254;139702;-67
2023/12/22 22:36:37;;;;;;;7.00;2.70;;;;;;;1.24;72.03;96900.65;219161;1254;139775;-68
2023/12/22 22:41:42;;;;;;;6.00;2.10;;;;;;;1.24;71.94;96895.56;217723;1254;140085;-69
2023/12/22 22:46:47;;;;;;;5.60;2.50;;;;;;;1.25;71.77;96893.59;220791;1253;139924;-68
2023/12/22 22:51:52;;;;;;;3.00;1.50;;;;;;;1.25;71.71;96885.04;218314;1254;140110;-66
2023/12/22 22:56:57;;;;;;;10.40;2.30;;;;;;;1.24;71.67;96884.86;218930;1255;140267;-66
2023/12/22 23:02:04;;;;;;;9.40;2.20;;;;;;;1.20;71.43;96882.38;218495;1254;139754;-69
2023/12/22 23:07:11;;;;;;;4.70;1.40;;;;;;;1.19;71.34;96881.89;218501;1253;139837;-67
2023/12/22 23:12:18;;;;;;;3.10;1.10;;;;;;;1.19;71.35;96884.04;219044;1253;139534;-67
2023/12/22 23:17:22;;;;;;;4.80;1.50;;;;;;;1.15;71.16;96889.13;218531;1254;139663;-67
2023/12/22 23:23:07;;;;;;;5.60;1.90;;;;;;;1.15;71.25;96895.31;218355;1254;139647;-67
2023/12/22 23:28:14;;;;;;;4.20;1.40;;;;;;;1.14;71.42;96902.50;218516;1253;139901;-66
2023/12/22 23:33:18;;;;;;;1.90;1.20;;;;;;;1.13;71.07;96908.63;219179;1253;139916;-65
2023/12/22 23:38:23;;;;;;;4.80;1.60;;;;;;;1.08;70.90;96910.12;218216;1254;139989;-67
2023/12/22 23:43:27;;;;;;;4.90;2.00;;;;;;;1.03;70.90;96921.90;217619;1253;140468;-66
2023/12/22 23:48:31;;;;;;;6.90;2.60;;;;;;;0.97;70.53;96935.99;217865;1256;139860;-66